sensor_id;sensor_type;location;lat;lon;timestamp;P1;durP1;ratioP1;P2;durP2;ratioP2
72951;SDS011;61102;51.956;5.878;2022-09-29T00:00:49;2.13;;;0.80;;
72951;SDS011;61102;51.956;5.878;2022-09-29T00:03:16;4.47;;;1.00;;
72951;SDS011;61102;51.956;5.878;2022-09-29T00:05:50;2.10;;;0.80;;
72951;SDS011;61102;51.956;5.878;2022-09-29T00:08:20;2.78;;;0.85;;
72951;SDS011;61102;51.956;5.878;2022-09-29T00:10:51;2.53;;;0.85;;
72951;SDS011;61102;51.956;5.878;2022-09-29T00:13:21;3.72;;;1.08;;
72951;SDS011;61102;51.956;5.878;2022-09-29T00:18:41;2.28;;;0.73;;
72951;SDS011;61102;51.956;5.878;2022-09-29T00:21:14;2.45;;;0.90;;
72951;SDS011;61102;51.956;5.878;2022-09-29T00:23:44;2.83;;;0.88;;
72951;SDS011;61102;51.956;5.878;2022-09-29T00:26:20;2.60;;;0.88;;
72951;SDS011;61102;51.956;5.878;2022-09-29T00:28:52;2.72;;;0.82;;
72951;SDS011;61102;51.956;5.878;2022-09-29T00:31:21;1.95;;;0.70;;
72951;SDS011;61102;51.956;5.878;2022-09-29T00:34:08;1.55;;;0.60;;
72951;SDS011;61102;51.956;5.878;2022-09-29T00:36:34;2.10;;;0.70;;
72951;SDS011;61102;51.956;5.878;2022-09-29T00:39:00;3.03;;;0.77;;
72951;SDS011;61102;51.956;5.878;2022-09-29T00:41:30;2.03;;;0.68;;
72951;SDS011;61102;51.956;5.878;2022-09-29T00:46:40;3.75;;;1.08;;
72951;SDS011;61102;51.956;5.878;2022-09-29T00:54:38;2.65;;;0.88;;
72951;SDS011;61102;51.956;5.878;2022-09-29T00:57:22;1.90;;;0.68;;
72951;SDS011;61102;51.956;5.878;2022-09-29T01:02:23;2.58;;;0.90;;
72951;SDS011;61102;51.956;5.878;2022-09-29T01:04:51;1.48;;;0.70;;
72951;SDS011;61102;51.956;5.878;2022-09-29T01:07:20;2.28;;;0.70;;
72951;SDS011;61102;51.956;5.878;2022-09-29T01:09:49;1.75;;;0.70;;
72951;SDS011;61102;51.956;5.878;2022-09-29T01:12:19;1.15;;;0.57;;
72951;SDS011;61102;51.956;5.878;2022-09-29T01:14:46;1.92;;;0.60;;
72951;SDS011;61102;51.956;5.878;2022-09-29T01:17:13;2.33;;;0.82;;
72951;SDS011;61102;51.956;5.878;2022-09-29T01:25:23;1.83;;;0.73;;
72951;SDS011;61102;51.956;5.878;2022-09-29T01:28:56;2.75;;;0.90;;
72951;SDS011;61102;51.956;5.878;2022-09-29T01:31:33;2.47;;;0.75;;
72951;SDS011;61102;51.956;5.878;2022-09-29T01:34:23;1.98;;;0.70;;
72951;SDS011;61102;51.956;5.878;2022-09-29T01:37:09;2.58;;;0.80;;
72951;SDS011;61102;51.956;5.878;2022-09-29T01:39:50;1.20;;;0.57;;
72951;SDS011;61102;51.956;5.878;2022-09-29T01:42:26;2.30;;;0.80;;
72951;SDS011;61102;51.956;5.878;2022-09-29T01:45:02;1.88;;;0.70;;
72951;SDS011;61102;51.956;5.878;2022-09-29T01:47:39;2.00;;;0.68;;
72951;SDS011;61102;51.956;5.878;2022-09-29T01:50:13;2.22;;;0.80;;
72951;SDS011;61102;51.956;5.878;2022-09-29T01:52:45;2.58;;;0.90;;
72951;SDS011;61102;51.956;5.878;2022-09-29T01:55:20;1.65;;;0.70;;
72951;SDS011;61102;51.956;5.878;2022-09-29T01:57:58;2.28;;;0.70;;
72951;SDS011;61102;51.956;5.878;2022-09-29T02:00:28;1.25;;;0.65;;
72951;SDS011;61102;51.956;5.878;2022-09-29T02:02:57;2.25;;;0.70;;
72951;SDS011;61102;51.956;5.878;2022-09-29T02:05:34;2.25;;;0.90;;
72951;SDS011;61102;51.956;5.878;2022-09-29T02:08:13;2.42;;;0.90;;
72951;SDS011;61102;51.956;5.878;2022-09-29T02:11:03;2.17;;;0.70;;
72951;SDS011;61102;51.956;5.878;2022-09-29T02:13:42;2.38;;;0.80;;
72951;SDS011;61102;51.956;5.878;2022-09-29T02:16:23;2.60;;;0.75;;
72951;SDS011;61102;51.956;5.878;2022-09-29T02:21:23;1.88;;;0.63;;
72951;SDS011;61102;51.956;5.878;2022-09-29T02:23:50;2.10;;;0.60;;
72951;SDS011;61102;51.956;5.878;2022-09-29T02:26:17;1.38;;;0.65;;
72951;SDS011;61102;51.956;5.878;2022-09-29T02:28:44;2.78;;;0.70;;
72951;SDS011;61102;51.956;5.878;2022-09-29T02:31:10;2.15;;;0.80;;
72951;SDS011;61102;51.956;5.878;2022-09-29T02:33:37;1.80;;;0.70;;
72951;SDS011;61102;51.956;5.878;2022-09-29T02:41:55;2.53;;;0.77;;
72951;SDS011;61102;51.956;5.878;2022-09-29T02:47:56;2.70;;;0.85;;
72951;SDS011;61102;51.956;5.878;2022-09-29T02:53:33;2.08;;;0.77;;
72951;SDS011;61102;51.956;5.878;2022-09-29T02:59:05;2.38;;;0.80;;
72951;SDS011;61102;51.956;5.878;2022-09-29T03:01:38;2.88;;;0.93;;
72951;SDS011;61102;51.956;5.878;2022-09-29T03:04:16;2.75;;;0.80;;
72951;SDS011;61102;51.956;5.878;2022-09-29T03:06:43;4.13;;;1.15;;
72951;SDS011;61102;51.956;5.878;2022-09-29T03:09:09;2.50;;;0.70;;
72951;SDS011;61102;51.956;5.878;2022-09-29T03:11:35;2.58;;;0.90;;
72951;SDS011;61102;51.956;5.878;2022-09-29T03:14:03;1.90;;;0.70;;
72951;SDS011;61102;51.956;5.878;2022-09-29T03:16:31;2.25;;;0.80;;
72951;SDS011;61102;51.956;5.878;2022-09-29T03:18:58;1.85;;;0.70;;
72951;SDS011;61102;51.956;5.878;2022-09-29T03:21:24;1.65;;;0.70;;
72951;SDS011;61102;51.956;5.878;2022-09-29T03:23:50;2.60;;;0.82;;
72951;SDS011;61102;51.956;5.878;2022-09-29T03:26:17;2.67;;;0.80;;
72951;SDS011;61102;51.956;5.878;2022-09-29T03:28:43;2.25;;;0.80;;
72951;SDS011;61102;51.956;5.878;2022-09-29T03:31:09;1.80;;;0.70;;
72951;SDS011;61102;51.956;5.878;2022-09-29T03:33:36;2.47;;;0.77;;
72951;SDS011;61102;51.956;5.878;2022-09-29T03:36:04;2.60;;;0.90;;
72951;SDS011;61102;51.956;5.878;2022-09-29T03:38:31;2.35;;;0.65;;
72951;SDS011;61102;51.956;5.878;2022-09-29T03:40:58;1.80;;;0.82;;
72951;SDS011;61102;51.956;5.878;2022-09-29T03:43:24;2.05;;;0.77;;
72951;SDS011;61102;51.956;5.878;2022-09-29T03:45:51;2.65;;;0.77;;
72951;SDS011;61102;51.956;5.878;2022-09-29T03:48:20;2.35;;;0.77;;
72951;SDS011;61102;51.956;5.878;2022-09-29T03:50:48;2.45;;;0.63;;
72951;SDS011;61102;51.956;5.878;2022-09-29T03:53:15;2.40;;;0.80;;
72951;SDS011;61102;51.956;5.878;2022-09-29T03:55:45;2.38;;;0.80;;
72951;SDS011;61102;51.956;5.878;2022-09-29T03:58:12;2.08;;;0.73;;
72951;SDS011;61102;51.956;5.878;2022-09-29T04:00:38;1.63;;;0.68;;
72951;SDS011;61102;51.956;5.878;2022-09-29T04:03:05;2.20;;;0.70;;
72951;SDS011;61102;51.956;5.878;2022-09-29T04:05:31;2.55;;;0.90;;
72951;SDS011;61102;51.956;5.878;2022-09-29T04:08:03;2.47;;;0.80;;
72951;SDS011;61102;51.956;5.878;2022-09-29T04:10:32;2.60;;;0.90;;
72951;SDS011;61102;51.956;5.878;2022-09-29T04:12:59;2.95;;;0.80;;
72951;SDS011;61102;51.956;5.878;2022-09-29T04:15:25;1.13;;;0.55;;
72951;SDS011;61102;51.956;5.878;2022-09-29T04:17:52;2.05;;;0.70;;
72951;SDS011;61102;51.956;5.878;2022-09-29T04:20:18;2.50;;;0.80;;
72951;SDS011;61102;51.956;5.878;2022-09-29T04:22:44;1.80;;;0.70;;
72951;SDS011;61102;51.956;5.878;2022-09-29T04:25:10;2.92;;;0.70;;
72951;SDS011;61102;51.956;5.878;2022-09-29T04:27:40;2.20;;;0.80;;
72951;SDS011;61102;51.956;5.878;2022-09-29T04:30:06;2.38;;;0.77;;
72951;SDS011;61102;51.956;5.878;2022-09-29T04:32:33;1.92;;;0.60;;
72951;SDS011;61102;51.956;5.878;2022-09-29T04:34:59;2.85;;;0.93;;
72951;SDS011;61102;51.956;5.878;2022-09-29T04:37:25;2.75;;;1.00;;
72951;SDS011;61102;51.956;5.878;2022-09-29T04:39:51;2.30;;;0.70;;
72951;SDS011;61102;51.956;5.878;2022-09-29T04:42:19;1.58;;;0.60;;
72951;SDS011;61102;51.956;5.878;2022-09-29T04:44:46;2.30;;;0.88;;
72951;SDS011;61102;51.956;5.878;2022-09-29T04:47:12;3.17;;;1.02;;
72951;SDS011;61102;51.956;5.878;2022-09-29T04:49:38;3.50;;;1.33;;
72951;SDS011;61102;51.956;5.878;2022-09-29T04:52:04;1.83;;;0.70;;
72951;SDS011;61102;51.956;5.878;2022-09-29T04:54:34;4.38;;;0.90;;
72951;SDS011;61102;51.956;5.878;2022-09-29T04:57:00;5.00;;;0.98;;
72951;SDS011;61102;51.956;5.878;2022-09-29T04:59:27;3.75;;;1.00;;
72951;SDS011;61102;51.956;5.878;2022-09-29T05:01:53;4.72;;;1.00;;
72951;SDS011;61102;51.956;5.878;2022-09-29T05:04:19;5.18;;;1.30;;
72951;SDS011;61102;51.956;5.878;2022-09-29T05:06:45;4.00;;;1.17;;
72951;SDS011;61102;51.956;5.878;2022-09-29T05:09:12;3.08;;;0.93;;
72951;SDS011;61102;51.956;5.878;2022-09-29T05:11:38;5.22;;;1.10;;
72951;SDS011;61102;51.956;5.878;2022-09-29T05:14:04;4.25;;;1.10;;
72951;SDS011;61102;51.956;5.878;2022-09-29T05:16:31;5.13;;;1.20;;
72951;SDS011;61102;51.956;5.878;2022-09-29T05:18:57;6.78;;;0.82;;
72951;SDS011;61102;51.956;5.878;2022-09-29T05:21:24;10.20;;;1.10;;
72951;SDS011;61102;51.956;5.878;2022-09-29T05:23:50;8.63;;;1.33;;
72951;SDS011;61102;51.956;5.878;2022-09-29T05:26:16;5.63;;;1.13;;
72951;SDS011;61102;51.956;5.878;2022-09-29T05:28:44;2.22;;;0.77;;
72951;SDS011;61102;51.956;5.878;2022-09-29T05:31:12;5.03;;;0.73;;
72951;SDS011;61102;51.956;5.878;2022-09-29T05:33:39;4.50;;;0.93;;
72951;SDS011;61102;51.956;5.878;2022-09-29T05:36:06;2.78;;;0.93;;
72951;SDS011;61102;51.956;5.878;2022-09-29T05:38:34;3.75;;;1.20;;
72951;SDS011;61102;51.956;5.878;2022-09-29T05:41:05;3.05;;;1.08;;
72951;SDS011;61102;51.956;5.878;2022-09-29T05:43:33;2.33;;;0.90;;
72951;SDS011;61102;51.956;5.878;2022-09-29T05:45:59;2.33;;;0.90;;
72951;SDS011;61102;51.956;5.878;2022-09-29T05:48:30;2.70;;;0.90;;
72951;SDS011;61102;51.956;5.878;2022-09-29T05:50:56;1.67;;;0.60;;
72951;SDS011;61102;51.956;5.878;2022-09-29T05:53:23;4.57;;;1.10;;
72951;SDS011;61102;51.956;5.878;2022-09-29T05:55:50;4.78;;;0.93;;
72951;SDS011;61102;51.956;5.878;2022-09-29T05:58:17;6.07;;;1.23;;
72951;SDS011;61102;51.956;5.878;2022-09-29T06:00:44;3.58;;;1.20;;
72951;SDS011;61102;51.956;5.878;2022-09-29T06:03:10;2.28;;;1.00;;
72951;SDS011;61102;51.956;5.878;2022-09-29T06:05:37;2.90;;;1.10;;
72951;SDS011;61102;51.956;5.878;2022-09-29T06:08:04;4.03;;;1.30;;
72951;SDS011;61102;51.956;5.878;2022-09-29T06:10:31;6.65;;;1.50;;
72951;SDS011;61102;51.956;5.878;2022-09-29T06:12:57;3.50;;;1.27;;
72951;SDS011;61102;51.956;5.878;2022-09-29T06:15:24;4.15;;;1.30;;
72951;SDS011;61102;51.956;5.878;2022-09-29T06:17:54;3.95;;;1.20;;
72951;SDS011;61102;51.956;5.878;2022-09-29T06:20:22;2.67;;;1.10;;
72951;SDS011;61102;51.956;5.878;2022-09-29T06:22:52;2.67;;;1.08;;
72951;SDS011;61102;51.956;5.878;2022-09-29T06:25:19;4.03;;;1.23;;
72951;SDS011;61102;51.956;5.878;2022-09-29T06:27:45;2.95;;;1.10;;
72951;SDS011;61102;51.956;5.878;2022-09-29T06:30:12;3.22;;;1.15;;
72951;SDS011;61102;51.956;5.878;2022-09-29T06:32:39;3.30;;;1.13;;
72951;SDS011;61102;51.956;5.878;2022-09-29T06:35:11;4.28;;;1.20;;
72951;SDS011;61102;51.956;5.878;2022-09-29T06:38:23;3.35;;;1.30;;
72951;SDS011;61102;51.956;5.878;2022-09-29T06:40:50;3.70;;;1.40;;
72951;SDS011;61102;51.956;5.878;2022-09-29T06:43:19;3.53;;;1.33;;
72951;SDS011;61102;51.956;5.878;2022-09-29T06:45:56;3.70;;;1.30;;
72951;SDS011;61102;51.956;5.878;2022-09-29T06:48:22;7.10;;;1.80;;
72951;SDS011;61102;51.956;5.878;2022-09-29T06:50:49;3.88;;;1.42;;
72951;SDS011;61102;51.956;5.878;2022-09-29T06:53:16;5.38;;;1.48;;
72951;SDS011;61102;51.956;5.878;2022-09-29T06:55:43;3.38;;;1.25;;
72951;SDS011;61102;51.956;5.878;2022-09-29T06:58:21;4.70;;;1.10;;
72951;SDS011;61102;51.956;5.878;2022-09-29T07:00:49;3.85;;;1.35;;
72951;SDS011;61102;51.956;5.878;2022-09-29T07:03:16;5.40;;;1.48;;
72951;SDS011;61102;51.956;5.878;2022-09-29T07:05:43;5.22;;;1.88;;
72951;SDS011;61102;51.956;5.878;2022-09-29T07:08:09;5.55;;;1.65;;
72951;SDS011;61102;51.956;5.878;2022-09-29T07:10:36;6.15;;;2.15;;
72951;SDS011;61102;51.956;5.878;2022-09-29T07:13:05;14.95;;;2.00;;
72951;SDS011;61102;51.956;5.878;2022-09-29T07:15:35;5.70;;;2.15;;
72951;SDS011;61102;51.956;5.878;2022-09-29T07:18:04;5.57;;;1.90;;
72951;SDS011;61102;51.956;5.878;2022-09-29T07:20:32;6.43;;;2.03;;
72951;SDS011;61102;51.956;5.878;2022-09-29T07:23:00;5.22;;;1.85;;
72951;SDS011;61102;51.956;5.878;2022-09-29T07:25:26;6.55;;;3.00;;
72951;SDS011;61102;51.956;5.878;2022-09-29T07:27:52;5.63;;;1.85;;
72951;SDS011;61102;51.956;5.878;2022-09-29T07:30:19;13.10;;;2.30;;
72951;SDS011;61102;51.956;5.878;2022-09-29T07:32:45;5.43;;;1.92;;
72951;SDS011;61102;51.956;5.878;2022-09-29T07:35:11;6.70;;;2.42;;
72951;SDS011;61102;51.956;5.878;2022-09-29T07:37:38;8.27;;;2.20;;
72951;SDS011;61102;51.956;5.878;2022-09-29T07:40:09;9.02;;;2.20;;
72951;SDS011;61102;51.956;5.878;2022-09-29T07:42:35;6.20;;;2.33;;
72951;SDS011;61102;51.956;5.878;2022-09-29T07:45:01;14.00;;;3.40;;
72951;SDS011;61102;51.956;5.878;2022-09-29T07:47:29;7.78;;;2.35;;
72951;SDS011;61102;51.956;5.878;2022-09-29T07:49:57;7.18;;;2.78;;
72951;SDS011;61102;51.956;5.878;2022-09-29T07:54:49;6.95;;;2.47;;
72951;SDS011;61102;51.956;5.878;2022-09-29T07:57:16;8.82;;;3.45;;
72951;SDS011;61102;51.956;5.878;2022-09-29T07:59:42;7.97;;;3.58;;
72951;SDS011;61102;51.956;5.878;2022-09-29T08:02:09;11.25;;;3.75;;
72951;SDS011;61102;51.956;5.878;2022-09-29T08:04:36;7.50;;;3.15;;
72951;SDS011;61102;51.956;5.878;2022-09-29T08:07:04;11.07;;;5.18;;
72951;SDS011;61102;51.956;5.878;2022-09-29T08:09:31;8.10;;;3.95;;
72951;SDS011;61102;51.956;5.878;2022-09-29T08:11:58;7.75;;;3.72;;
72951;SDS011;61102;51.956;5.878;2022-09-29T08:14:24;8.23;;;3.70;;
72951;SDS011;61102;51.956;5.878;2022-09-29T08:16:52;8.48;;;3.67;;
72951;SDS011;61102;51.956;5.878;2022-09-29T08:19:18;8.45;;;3.95;;
72951;SDS011;61102;51.956;5.878;2022-09-29T08:21:44;11.18;;;6.00;;
72951;SDS011;61102;51.956;5.878;2022-09-29T08:24:14;8.73;;;4.20;;
72951;SDS011;61102;51.956;5.878;2022-09-29T08:26:45;8.68;;;4.32;;
72951;SDS011;61102;51.956;5.878;2022-09-29T08:29:14;8.23;;;3.92;;
72951;SDS011;61102;51.956;5.878;2022-09-29T08:31:42;9.55;;;5.03;;
72951;SDS011;61102;51.956;5.878;2022-09-29T08:34:09;9.40;;;4.78;;
72951;SDS011;61102;51.956;5.878;2022-09-29T08:36:35;8.60;;;4.82;;
72951;SDS011;61102;51.956;5.878;2022-09-29T08:39:03;9.18;;;5.10;;
72951;SDS011;61102;51.956;5.878;2022-09-29T08:41:32;8.60;;;4.30;;
72951;SDS011;61102;51.956;5.878;2022-09-29T08:44:26;8.82;;;4.65;;
72951;SDS011;61102;51.956;5.878;2022-09-29T08:47:00;9.25;;;5.05;;
72951;SDS011;61102;51.956;5.878;2022-09-29T08:53:00;8.18;;;4.13;;
72951;SDS011;61102;51.956;5.878;2022-09-29T08:58:35;9.93;;;5.43;;
72951;SDS011;61102;51.956;5.878;2022-09-29T09:01:13;12.70;;;7.18;;
72951;SDS011;61102;51.956;5.878;2022-09-29T09:07:06;10.95;;;6.88;;
72951;SDS011;61102;51.956;5.878;2022-09-29T09:16:39;10.60;;;6.32;;
72951;SDS011;61102;51.956;5.878;2022-09-29T09:22:19;10.05;;;6.10;;
72951;SDS011;61102;51.956;5.878;2022-09-29T09:28:38;8.70;;;5.20;;
72951;SDS011;61102;51.956;5.878;2022-09-29T09:31:05;12.82;;;6.32;;
72951;SDS011;61102;51.956;5.878;2022-09-29T09:36:15;10.55;;;6.00;;
72951;SDS011;61102;51.956;5.878;2022-09-29T09:39:10;8.88;;;5.05;;
72951;SDS011;61102;51.956;5.878;2022-09-29T09:41:46;10.38;;;5.47;;
72951;SDS011;61102;51.956;5.878;2022-09-29T09:47:23;9.13;;;5.35;;
72951;SDS011;61102;51.956;5.878;2022-09-29T09:50:16;7.90;;;3.83;;
72951;SDS011;61102;51.956;5.878;2022-09-29T09:53:02;10.07;;;6.03;;
72951;SDS011;61102;51.956;5.878;2022-09-29T09:55:39;10.18;;;5.03;;
72951;SDS011;61102;51.956;5.878;2022-09-29T10:03:32;8.38;;;4.00;;
72951;SDS011;61102;51.956;5.878;2022-09-29T10:06:00;8.38;;;4.45;;
72951;SDS011;61102;51.956;5.878;2022-09-29T10:08:35;9.32;;;4.32;;
72951;SDS011;61102;51.956;5.878;2022-09-29T10:17:48;8.38;;;3.90;;
72951;SDS011;61102;51.956;5.878;2022-09-29T10:20:27;9.40;;;4.38;;
72951;SDS011;61102;51.956;5.878;2022-09-29T10:26:11;8.55;;;2.90;;
72951;SDS011;61102;51.956;5.878;2022-09-29T10:28:58;7.00;;;3.22;;
72951;SDS011;61102;51.956;5.878;2022-09-29T10:31:31;6.53;;;2.95;;
72951;SDS011;61102;51.956;5.878;2022-09-29T10:36:49;7.25;;;3.67;;
72951;SDS011;61102;51.956;5.878;2022-09-29T10:42:30;7.22;;;2.90;;
72951;SDS011;61102;51.956;5.878;2022-09-29T10:50:52;8.30;;;3.85;;
72951;SDS011;61102;51.956;5.878;2022-09-29T10:53:36;10.57;;;3.80;;
72951;SDS011;61102;51.956;5.878;2022-09-29T10:56:19;10.48;;;3.42;;
72951;SDS011;61102;51.956;5.878;2022-09-29T10:58:58;7.40;;;2.70;;
72951;SDS011;61102;51.956;5.878;2022-09-29T11:01:29;6.65;;;3.00;;
72951;SDS011;61102;51.956;5.878;2022-09-29T11:04:02;6.85;;;2.30;;
72951;SDS011;61102;51.956;5.878;2022-09-29T11:06:35;5.93;;;2.17;;
72951;SDS011;61102;51.956;5.878;2022-09-29T11:11:52;5.43;;;2.05;;
72951;SDS011;61102;51.956;5.878;2022-09-29T11:14:52;6.47;;;2.85;;
72951;SDS011;61102;51.956;5.878;2022-09-29T11:17:23;7.03;;;2.55;;
72951;SDS011;61102;51.956;5.878;2022-09-29T11:31:20;5.85;;;2.45;;
72951;SDS011;61102;51.956;5.878;2022-09-29T11:34:13;5.57;;;1.80;;
72951;SDS011;61102;51.956;5.878;2022-09-29T11:42:59;5.10;;;1.90;;
72951;SDS011;61102;51.956;5.878;2022-09-29T11:45:40;4.15;;;1.98;;
72951;SDS011;61102;51.956;5.878;2022-09-29T11:51:08;6.10;;;2.10;;
72951;SDS011;61102;51.956;5.878;2022-09-29T12:05:26;5.28;;;1.90;;
72951;SDS011;61102;51.956;5.878;2022-09-29T12:16:28;4.97;;;1.98;;
72951;SDS011;61102;51.956;5.878;2022-09-29T12:21:40;5.50;;;1.70;;
72951;SDS011;61102;51.956;5.878;2022-09-29T12:27:14;3.45;;;1.20;;
72951;SDS011;61102;51.956;5.878;2022-09-29T12:46:52;3.35;;;1.05;;
72951;SDS011;61102;51.956;5.878;2022-09-29T12:49:31;5.18;;;1.50;;
72951;SDS011;61102;51.956;5.878;2022-09-29T12:52:08;4.47;;;1.50;;
72951;SDS011;61102;51.956;5.878;2022-09-29T12:54:53;6.18;;;1.52;;
72951;SDS011;61102;51.956;5.878;2022-09-29T12:57:46;3.42;;;1.15;;
72951;SDS011;61102;51.956;5.878;2022-09-29T13:00:16;2.55;;;0.80;;
72951;SDS011;61102;51.956;5.878;2022-09-29T13:08:56;1.70;;;0.60;;
72951;SDS011;61102;51.956;5.878;2022-09-29T13:11:52;1.77;;;0.70;;
72951;SDS011;61102;51.956;5.878;2022-09-29T13:14:31;1.63;;;0.70;;
72951;SDS011;61102;51.956;5.878;2022-09-29T13:19:52;3.65;;;1.20;;
72951;SDS011;61102;51.956;5.878;2022-09-29T13:22:40;4.97;;;1.40;;
72951;SDS011;61102;51.956;5.878;2022-09-29T13:28:31;2.15;;;0.90;;
72951;SDS011;61102;51.956;5.878;2022-09-29T13:31:04;3.22;;;1.20;;
72951;SDS011;61102;51.956;5.878;2022-09-29T13:33:34;1.48;;;0.57;;
72951;SDS011;61102;51.956;5.878;2022-09-29T13:36:01;2.35;;;0.80;;
72951;SDS011;61102;51.956;5.878;2022-09-29T13:38:32;2.88;;;0.77;;
72951;SDS011;61102;51.956;5.878;2022-09-29T13:46:25;1.63;;;0.70;;
72951;SDS011;61102;51.956;5.878;2022-09-29T13:51:53;3.33;;;0.85;;
72951;SDS011;61102;51.956;5.878;2022-09-29T13:59:37;3.40;;;1.08;;
72951;SDS011;61102;51.956;5.878;2022-09-29T14:05:01;2.25;;;0.90;;
72951;SDS011;61102;51.956;5.878;2022-09-29T14:07:38;4.25;;;0.90;;
72951;SDS011;61102;51.956;5.878;2022-09-29T14:18:45;3.58;;;0.80;;
72951;SDS011;61102;51.956;5.878;2022-09-29T14:21:49;1.63;;;0.60;;
72951;SDS011;61102;51.956;5.878;2022-09-29T14:27:22;1.80;;;0.60;;
72951;SDS011;61102;51.956;5.878;2022-09-29T14:29:55;3.33;;;0.82;;
72951;SDS011;61102;51.956;5.878;2022-09-29T14:32:55;1.83;;;0.77;;
72951;SDS011;61102;51.956;5.878;2022-09-29T14:35:37;2.70;;;0.77;;
72951;SDS011;61102;51.956;5.878;2022-09-29T14:49:26;3.22;;;0.60;;
72951;SDS011;61102;51.956;5.878;2022-09-29T14:55:27;3.03;;;0.60;;
72951;SDS011;61102;51.956;5.878;2022-09-29T15:01:18;2.88;;;0.80;;
72951;SDS011;61102;51.956;5.878;2022-09-29T15:03:56;1.80;;;0.70;;
72951;SDS011;61102;51.956;5.878;2022-09-29T15:06:31;3.50;;;1.17;;
72951;SDS011;61102;51.956;5.878;2022-09-29T15:11:32;2.60;;;0.80;;
72951;SDS011;61102;51.956;5.878;2022-09-29T15:30:37;2.03;;;0.50;;
72951;SDS011;61102;51.956;5.878;2022-09-29T15:33:20;2.00;;;0.50;;
72951;SDS011;61102;51.956;5.878;2022-09-29T15:35:55;0.63;;;0.40;;
72951;SDS011;61102;51.956;5.878;2022-09-29T15:40:54;1.52;;;0.40;;
72951;SDS011;61102;51.956;5.878;2022-09-29T15:43:22;2.13;;;0.50;;
72951;SDS011;61102;51.956;5.878;2022-09-29T15:45:59;2.20;;;0.50;;
72951;SDS011;61102;51.956;5.878;2022-09-29T15:48:32;1.67;;;0.60;;
72951;SDS011;61102;51.956;5.878;2022-09-29T15:50:59;1.23;;;0.60;;
72951;SDS011;61102;51.956;5.878;2022-09-29T15:53:26;1.70;;;0.60;;
72951;SDS011;61102;51.956;5.878;2022-09-29T15:55:53;2.88;;;0.70;;
72951;SDS011;61102;51.956;5.878;2022-09-29T16:01:03;1.98;;;0.70;;
72951;SDS011;61102;51.956;5.878;2022-09-29T16:08:51;1.60;;;0.60;;
72951;SDS011;61102;51.956;5.878;2022-09-29T16:11:23;3.25;;;0.90;;
72951;SDS011;61102;51.956;5.878;2022-09-29T16:14:10;3.28;;;0.80;;
72951;SDS011;61102;51.956;5.878;2022-09-29T16:16:44;2.75;;;0.90;;
72951;SDS011;61102;51.956;5.878;2022-09-29T16:19:15;1.70;;;0.70;;
72951;SDS011;61102;51.956;5.878;2022-09-29T16:21:54;1.98;;;0.68;;
72951;SDS011;61102;51.956;5.878;2022-09-29T16:24:27;2.80;;;0.70;;
72951;SDS011;61102;51.956;5.878;2022-09-29T16:26:57;1.42;;;0.60;;
72951;SDS011;61102;51.956;5.878;2022-09-29T16:36:23;2.10;;;0.70;;
72951;SDS011;61102;51.956;5.878;2022-09-29T16:38:53;2.08;;;0.80;;
72951;SDS011;61102;51.956;5.878;2022-09-29T16:49:26;2.38;;;0.70;;
72951;SDS011;61102;51.956;5.878;2022-09-29T16:54:51;2.85;;;1.02;;
72951;SDS011;61102;51.956;5.878;2022-09-29T16:57:23;1.88;;;0.70;;
72951;SDS011;61102;51.956;5.878;2022-09-29T17:00:08;2.83;;;0.90;;
72951;SDS011;61102;51.956;5.878;2022-09-29T17:02:36;2.70;;;0.70;;
72951;SDS011;61102;51.956;5.878;2022-09-29T17:05:04;3.05;;;0.90;;
72951;SDS011;61102;51.956;5.878;2022-09-29T17:07:30;1.48;;;0.70;;
72951;SDS011;61102;51.956;5.878;2022-09-29T17:10:02;2.15;;;0.80;;
72951;SDS011;61102;51.956;5.878;2022-09-29T17:12:29;2.70;;;0.88;;
72951;SDS011;61102;51.956;5.878;2022-09-29T17:14:56;2.15;;;0.70;;
72951;SDS011;61102;51.956;5.878;2022-09-29T17:17:23;2.05;;;0.90;;
72951;SDS011;61102;51.956;5.878;2022-09-29T17:19:52;1.95;;;0.73;;
72951;SDS011;61102;51.956;5.878;2022-09-29T17:24:56;3.05;;;0.82;;
72951;SDS011;61102;51.956;5.878;2022-09-29T17:27:29;2.97;;;1.10;;
72951;SDS011;61102;51.956;5.878;2022-09-29T17:30:15;4.18;;;1.10;;
72951;SDS011;61102;51.956;5.878;2022-09-29T17:32:45;3.13;;;1.02;;
72951;SDS011;61102;51.956;5.878;2022-09-29T17:35:12;1.80;;;0.75;;
72951;SDS011;61102;51.956;5.878;2022-09-29T17:37:40;3.47;;;1.20;;
72951;SDS011;61102;51.956;5.878;2022-09-29T17:40:21;2.08;;;0.90;;
72951;SDS011;61102;51.956;5.878;2022-09-29T17:42:55;3.03;;;1.10;;
72951;SDS011;61102;51.956;5.878;2022-09-29T17:45:24;4.57;;;1.45;;
72951;SDS011;61102;51.956;5.878;2022-09-29T17:47:51;4.53;;;1.40;;
72951;SDS011;61102;51.956;5.878;2022-09-29T17:50:25;3.38;;;1.20;;
72951;SDS011;61102;51.956;5.878;2022-09-29T17:52:57;4.13;;;1.20;;
72951;SDS011;61102;51.956;5.878;2022-09-29T17:55:25;3.50;;;1.20;;
72951;SDS011;61102;51.956;5.878;2022-09-29T17:57:52;8.13;;;3.72;;
72951;SDS011;61102;51.956;5.878;2022-09-29T18:00:21;10.93;;;6.07;;
72951;SDS011;61102;51.956;5.878;2022-09-29T18:02:49;7.38;;;3.03;;
72951;SDS011;61102;51.956;5.878;2022-09-29T18:07:51;5.32;;;1.70;;
72951;SDS011;61102;51.956;5.878;2022-09-29T18:12:48;5.28;;;1.92;;
72951;SDS011;61102;51.956;5.878;2022-09-29T18:15:14;5.28;;;2.00;;
72951;SDS011;61102;51.956;5.878;2022-09-29T18:17:43;6.40;;;1.80;;
72951;SDS011;61102;51.956;5.878;2022-09-29T18:20:14;4.38;;;1.50;;
72951;SDS011;61102;51.956;5.878;2022-09-29T18:22:42;4.90;;;1.58;;
72951;SDS011;61102;51.956;5.878;2022-09-29T18:25:09;4.38;;;1.20;;
72951;SDS011;61102;51.956;5.878;2022-09-29T18:27:35;3.50;;;1.40;;
72951;SDS011;61102;51.956;5.878;2022-09-29T18:30:18;3.70;;;1.30;;
72951;SDS011;61102;51.956;5.878;2022-09-29T18:32:49;4.07;;;1.30;;
72951;SDS011;61102;51.956;5.878;2022-09-29T18:35:26;4.05;;;1.30;;
72951;SDS011;61102;51.956;5.878;2022-09-29T18:37:59;4.75;;;1.60;;
72951;SDS011;61102;51.956;5.878;2022-09-29T18:40:26;5.00;;;1.73;;
72951;SDS011;61102;51.956;5.878;2022-09-29T18:42:54;5.18;;;2.10;;
72951;SDS011;61102;51.956;5.878;2022-09-29T18:45:25;5.78;;;2.00;;
72951;SDS011;61102;51.956;5.878;2022-09-29T18:47:54;5.45;;;1.60;;
72951;SDS011;61102;51.956;5.878;2022-09-29T18:50:29;5.20;;;1.63;;
72951;SDS011;61102;51.956;5.878;2022-09-29T18:52:57;6.53;;;2.17;;
72951;SDS011;61102;51.956;5.878;2022-09-29T18:55:25;4.90;;;1.90;;
72951;SDS011;61102;51.956;5.878;2022-09-29T18:57:53;6.18;;;2.30;;
72951;SDS011;61102;51.956;5.878;2022-09-29T19:00:24;5.50;;;1.73;;
72951;SDS011;61102;51.956;5.878;2022-09-29T19:02:57;5.80;;;2.08;;
72951;SDS011;61102;51.956;5.878;2022-09-29T19:05:26;7.05;;;2.40;;
72951;SDS011;61102;51.956;5.878;2022-09-29T19:07:57;5.68;;;2.15;;
72951;SDS011;61102;51.956;5.878;2022-09-29T19:10:27;7.70;;;2.50;;
72951;SDS011;61102;51.956;5.878;2022-09-29T19:12:59;5.55;;;2.00;;
72951;SDS011;61102;51.956;5.878;2022-09-29T19:15:29;6.18;;;1.92;;
72951;SDS011;61102;51.956;5.878;2022-09-29T19:18:01;6.53;;;2.10;;
72951;SDS011;61102;51.956;5.878;2022-09-29T19:20:27;4.68;;;1.70;;
72951;SDS011;61102;51.956;5.878;2022-09-29T19:22:55;5.97;;;2.08;;
72951;SDS011;61102;51.956;5.878;2022-09-29T19:25:24;5.32;;;1.95;;
72951;SDS011;61102;51.956;5.878;2022-09-29T19:27:54;6.53;;;1.80;;
72951;SDS011;61102;51.956;5.878;2022-09-29T19:30:24;5.93;;;2.03;;
72951;SDS011;61102;51.956;5.878;2022-09-29T19:32:53;5.93;;;1.90;;
72951;SDS011;61102;51.956;5.878;2022-09-29T19:35:20;4.15;;;1.52;;
72951;SDS011;61102;51.956;5.878;2022-09-29T19:37:48;5.20;;;1.80;;
72951;SDS011;61102;51.956;5.878;2022-09-29T19:40:21;4.60;;;1.55;;
72951;SDS011;61102;51.956;5.878;2022-09-29T19:42:49;4.88;;;1.80;;
72951;SDS011;61102;51.956;5.878;2022-09-29T19:45:16;5.95;;;1.90;;
72951;SDS011;61102;51.956;5.878;2022-09-29T19:47:43;4.45;;;1.50;;